SPTKW EPPO-EPSC
Flight info
| Callsign | SPTKW |
|---|---|
| Flight time | 0h 28m |
| Altitude | 22000 |
| Route | XERBI L996 PIXOR DCT ZAWIK |
| Aircraft | PC21/L-SDGRWY/L |
Departure
| Time | 2026-04-25 19:23 |
|---|---|
| Airport | Poznań-Ławica Airport (EPPO) |
Arrival
| Time | 2026-04-25 19:51 |
|---|---|
| Airport | Solidarity Szczecin–Goleniów Airport (EPSC) |
| Time | Latitude | Longitude | Altitude | Speed | Heading |
|---|---|---|---|---|---|
| 2026-04-25 19:15 | 52.41513 | 16.83809 | 284 ft | 0 kts | 95° |
| 2026-04-25 19:21 | 52.41512 | 16.83829 | 284 ft | 2 kts | 87° |
| 2026-04-25 19:21 | 52.41565 | 16.83873 | 284 ft | 7 kts | 59° |
| 2026-04-25 19:21 | 52.41621 | 16.83976 | 284 ft | 12 kts | 33° |
| 2026-04-25 19:22 | 52.41730 | 16.84035 | 284 ft | 21 kts | 16° |
| 2026-04-25 19:22 | 52.41818 | 16.84067 | 284 ft | 7 kts | 316° |
| 2026-04-25 19:22 | 52.42023 | 16.83036 | 282 ft | 120 kts | 288° |
| 2026-04-25 19:23 | 52.42340 | 16.81565 | 689 ft | 148 kts | 288° |
| 2026-04-25 19:23 | 52.43773 | 16.78361 | 2068 ft | 214 kts | 309° |
| 2026-04-25 19:23 | 52.44823 | 16.76408 | 2418 ft | 241 kts | 310° |
| 2026-04-25 19:24 | 52.45980 | 16.74263 | 2781 ft | 257 kts | 309° |
| 2026-04-25 19:24 | 52.47062 | 16.71924 | 3130 ft | 249 kts | 305° |
| 2026-04-25 19:24 | 52.49008 | 16.67687 | 3788 ft | 233 kts | 306° |
| 2026-04-25 19:25 | 52.50920 | 16.63514 | 4392 ft | 230 kts | 305° |
| 2026-04-25 19:25 | 52.51891 | 16.61397 | 4676 ft | 233 kts | 305° |
| 2026-04-25 19:25 | 52.52869 | 16.59263 | 4965 ft | 235 kts | 305° |
| 2026-04-25 19:26 | 52.53870 | 16.57074 | 5259 ft | 236 kts | 305° |
| 2026-04-25 19:26 | 52.54853 | 16.54928 | 5548 ft | 237 kts | 305° |
| 2026-04-25 19:26 | 52.55840 | 16.52770 | 5827 ft | 235 kts | 305° |
| 2026-04-25 19:26 | 52.56824 | 16.50613 | 6097 ft | 237 kts | 304° |
| 2026-04-25 19:27 | 52.57812 | 16.48446 | 6403 ft | 236 kts | 304° |
| 2026-04-25 19:27 | 52.58482 | 16.46978 | 6548 ft | 240 kts | 304° |
| 2026-04-25 19:27 | 52.59815 | 16.44052 | 6633 ft | 239 kts | 304° |
| 2026-04-25 19:27 | 52.60796 | 16.41898 | 7060 ft | 233 kts | 304° |
| 2026-04-25 19:28 | 52.61769 | 16.39758 | 7602 ft | 234 kts | 304° |
| 2026-04-25 19:28 | 52.62746 | 16.37610 | 8190 ft | 233 kts | 304° |
| 2026-04-25 19:28 | 52.63715 | 16.35474 | 8827 ft | 233 kts | 303° |
| 2026-04-25 19:28 | 52.64687 | 16.33327 | 9480 ft | 233 kts | 303° |
| 2026-04-25 19:29 | 52.65661 | 16.31185 | 10106 ft | 234 kts | 303° |
| 2026-04-25 19:29 | 52.66625 | 16.29076 | 10686 ft | 233 kts | 303° |
| 2026-04-25 19:29 | 52.67595 | 16.26904 | 11301 ft | 232 kts | 302° |
| 2026-04-25 19:29 | 52.68542 | 16.24800 | 11911 ft | 231 kts | 303° |
| 2026-04-25 19:30 | 52.69501 | 16.22694 | 12546 ft | 229 kts | 302° |
| 2026-04-25 19:30 | 52.70447 | 16.20591 | 13179 ft | 227 kts | 302° |
| 2026-04-25 19:30 | 52.71427 | 16.18477 | 13702 ft | 233 kts | 308° |
| 2026-04-25 19:30 | 52.72756 | 16.16790 | 14152 ft | 242 kts | 319° |
| 2026-04-25 19:31 | 52.74260 | 16.15295 | 14609 ft | 246 kts | 321° |
| 2026-04-25 19:31 | 52.75761 | 16.13914 | 15063 ft | 249 kts | 322° |
| 2026-04-25 19:31 | 52.77274 | 16.12568 | 15512 ft | 250 kts | 322° |
| 2026-04-25 19:31 | 52.78835 | 16.11203 | 15980 ft | 251 kts | 323° |
| 2026-04-25 19:32 | 52.80369 | 16.09873 | 16443 ft | 253 kts | 323° |
| 2026-04-25 19:32 | 52.81939 | 16.08514 | 16756 ft | 258 kts | 323° |
| 2026-04-25 19:32 | 52.83556 | 16.07104 | 16847 ft | 265 kts | 323° |
| 2026-04-25 19:32 | 52.84109 | 16.06620 | 16861 ft | 266 kts | 323° |
| 2026-04-25 19:33 | 52.86851 | 16.04205 | 16903 ft | 270 kts | 323° |
| 2026-04-25 19:33 | 52.88512 | 16.02735 | 16905 ft | 271 kts | 323° |
| 2026-04-25 19:33 | 52.90176 | 16.01262 | 16912 ft | 271 kts | 323° |
| 2026-04-25 19:33 | 52.91841 | 15.99786 | 16911 ft | 271 kts | 323° |
| 2026-04-25 19:34 | 52.93499 | 15.98315 | 16919 ft | 270 kts | 323° |
| 2026-04-25 19:34 | 52.95160 | 15.96842 | 16955 ft | 269 kts | 323° |
| 2026-04-25 19:34 | 52.96784 | 15.95413 | 17353 ft | 260 kts | 323° |
| 2026-04-25 19:34 | 52.98361 | 15.94038 | 17672 ft | 259 kts | 323° |
| 2026-04-25 19:35 | 52.99966 | 15.92635 | 17802 ft | 263 kts | 323° |
| 2026-04-25 19:35 | 53.01610 | 15.91190 | 17871 ft | 265 kts | 323° |
| 2026-04-25 19:35 | 53.03246 | 15.89747 | 17897 ft | 267 kts | 323° |
| 2026-04-25 19:35 | 53.04890 | 15.88292 | 17907 ft | 267 kts | 323° |
| 2026-04-25 19:36 | 53.06508 | 15.86858 | 17912 ft | 267 kts | 323° |
| 2026-04-25 19:36 | 53.08144 | 15.85412 | 17913 ft | 265 kts | 323° |
| 2026-04-25 19:36 | 53.09770 | 15.83974 | 17911 ft | 264 kts | 323° |
| 2026-04-25 19:36 | 53.11392 | 15.82539 | 17905 ft | 264 kts | 323° |
| 2026-04-25 19:37 | 53.13041 | 15.81079 | 17905 ft | 263 kts | 323° |
| 2026-04-25 19:37 | 53.14654 | 15.79650 | 17911 ft | 263 kts | 323° |
| 2026-04-25 19:37 | 53.16251 | 15.78188 | 17913 ft | 258 kts | 317° |
| 2026-04-25 19:37 | 53.17250 | 15.75940 | 17932 ft | 247 kts | 286° |
| 2026-04-25 19:38 | 53.17224 | 15.72989 | 17936 ft | 257 kts | 269° |
| 2026-04-25 19:38 | 53.17230 | 15.70080 | 17933 ft | 247 kts | 290° |
| 2026-04-25 19:38 | 53.18248 | 15.67784 | 17948 ft | 253 kts | 311° |
| 2026-04-25 19:38 | 53.19560 | 15.65808 | 17933 ft | 254 kts | 312° |
| 2026-04-25 19:39 | 53.20879 | 15.63839 | 17724 ft | 256 kts | 311° |
| 2026-04-25 19:39 | 53.21739 | 15.62505 | 17513 ft | 254 kts | 311° |
| 2026-04-25 19:39 | 53.23014 | 15.60469 | 17192 ft | 252 kts | 310° |
| 2026-04-25 19:39 | 53.24268 | 15.58424 | 16691 ft | 254 kts | 310° |
| 2026-04-25 19:40 | 53.25437 | 15.56453 | 15893 ft | 252 kts | 307° |
| 2026-04-25 19:40 | 53.26521 | 15.54197 | 15070 ft | 248 kts | 304° |
| 2026-04-25 19:40 | 53.27605 | 15.51953 | 13755 ft | 249 kts | 305° |
| 2026-04-25 19:40 | 53.28711 | 15.49729 | 12141 ft | 248 kts | 305° |
| 2026-04-25 19:41 | 53.29810 | 15.47452 | 10604 ft | 249 kts | 306° |
| 2026-04-25 19:41 | 53.30898 | 15.45228 | 9077 ft | 251 kts | 308° |
| 2026-04-25 19:41 | 53.32037 | 15.42948 | 7748 ft | 249 kts | 309° |
| 2026-04-25 19:41 | 53.32758 | 15.41536 | 7550 ft | 237 kts | 309° |
| 2026-04-25 19:42 | 53.34204 | 15.38767 | 6864 ft | 238 kts | 310° |
| 2026-04-25 19:42 | 53.35323 | 15.36680 | 6356 ft | 237 kts | 311° |
| 2026-04-25 19:42 | 53.36427 | 15.34666 | 5824 ft | 236 kts | 312° |
| 2026-04-25 19:42 | 53.37485 | 15.32601 | 5298 ft | 232 kts | 307° |
| 2026-04-25 19:43 | 53.38407 | 15.30390 | 4780 ft | 229 kts | 304° |
| 2026-04-25 19:43 | 53.39251 | 15.28261 | 4243 ft | 210 kts | 304° |
| 2026-04-25 19:43 | 53.40060 | 15.26317 | 3700 ft | 197 kts | 308° |
| 2026-04-25 19:43 | 53.40929 | 15.24585 | 3170 ft | 196 kts | 309° |
| 2026-04-25 19:44 | 53.41799 | 15.22797 | 2635 ft | 197 kts | 307° |
| 2026-04-25 19:44 | 53.42653 | 15.21001 | 2138 ft | 197 kts | 307° |
| 2026-04-25 19:44 | 53.43509 | 15.19236 | 1843 ft | 193 kts | 307° |
| 2026-04-25 19:44 | 53.44350 | 15.17495 | 1764 ft | 192 kts | 307° |
| 2026-04-25 19:45 | 53.45191 | 15.15736 | 1736 ft | 193 kts | 307° |
| 2026-04-25 19:45 | 53.46061 | 15.14010 | 1719 ft | 195 kts | 310° |
| 2026-04-25 19:45 | 53.47010 | 15.12391 | 1721 ft | 191 kts | 311° |
| 2026-04-25 19:45 | 53.47871 | 15.10890 | 1698 ft | 173 kts | 308° |
| 2026-04-25 19:46 | 53.48611 | 15.09429 | 1702 ft | 174 kts | 306° |
| 2026-04-25 19:46 | 53.49406 | 15.07798 | 1698 ft | 173 kts | 306° |
| 2026-04-25 19:46 | 53.50181 | 15.06254 | 1689 ft | 173 kts | 308° |
| 2026-04-25 19:46 | 53.50975 | 15.04732 | 1667 ft | 173 kts | 308° |
| 2026-04-25 19:47 | 53.51749 | 15.03261 | 1676 ft | 156 kts | 308° |
| 2026-04-25 19:47 | 53.52372 | 15.02069 | 1680 ft | 121 kts | 307° |
| 2026-04-25 19:47 | 53.52855 | 15.01127 | 1668 ft | 87 kts | 306° |
| 2026-04-25 19:47 | 53.53198 | 15.00460 | 1578 ft | 76 kts | 304° |
| 2026-04-25 19:48 | 53.53534 | 14.99773 | 1431 ft | 76 kts | 304° |
| 2026-04-25 19:48 | 53.53875 | 14.99098 | 1314 ft | 76 kts | 305° |
| 2026-04-25 19:48 | 53.54221 | 14.98431 | 1185 ft | 76 kts | 306° |
| 2026-04-25 19:48 | 53.54593 | 14.97749 | 1127 ft | 83 kts | 308° |
| 2026-04-25 19:49 | 53.54995 | 14.97039 | 1109 ft | 87 kts | 307° |
| 2026-04-25 19:49 | 53.55283 | 14.96543 | 1110 ft | 89 kts | 304° |
| 2026-04-25 19:49 | 53.55842 | 14.95383 | 861 ft | 104 kts | 300° |
| 2026-04-25 19:49 | 53.56334 | 14.94440 | 630 ft | 109 kts | 307° |
| 2026-04-25 19:50 | 53.57282 | 14.92580 | 337 ft | 90 kts | 304° |
| 2026-04-25 19:50 | 53.57661 | 14.91830 | 237 ft | 80 kts | 300° |
| 2026-04-25 19:50 | 53.58013 | 14.91139 | 161 ft | 72 kts | 304° |
| 2026-04-25 19:51 | 53.58284 | 14.90598 | 148 ft | 54 kts | 310° |
| 2026-04-25 19:51 | 53.58517 | 14.90136 | 143 ft | 50 kts | 310° |
| 2026-04-25 19:51 | 53.58739 | 14.89705 | 136 ft | 48 kts | 312° |
| 2026-04-25 19:51 | 53.58954 | 14.89292 | 132 ft | 45 kts | 308° |
| 2026-04-25 19:52 | 53.59080 | 14.89125 | 126 ft | 9 kts | 51° |
| 2026-04-25 19:52 | 53.59131 | 14.89204 | 126 ft | 10 kts | 40° |
| 2026-04-25 19:52 | 53.59162 | 14.89299 | 128 ft | 9 kts | 102° |
| 2026-04-25 19:52 | 53.59127 | 14.89376 | 128 ft | 8 kts | 131° |
| 2026-04-25 19:53 | 53.59106 | 14.89452 | 128 ft | 6 kts | 69° |
| 2026-04-25 19:53 | 53.59140 | 14.89515 | 130 ft | 17 kts | 41° |
| 2026-04-25 19:53 | 53.59184 | 14.89603 | 130 ft | 6 kts | 99° |
| 2026-04-25 19:53 | 53.59124 | 14.89722 | 131 ft | 18 kts | 130° |
| 2026-04-25 19:54 | 53.59064 | 14.89838 | 133 ft | 5 kts | 128° |
| 2026-04-25 19:54 | 53.59069 | 14.89903 | 134 ft | 10 kts | 57° |
| 2026-04-25 19:54 | 53.59060 | 14.89936 | 134 ft | 3 kts | 208° |
| 2026-04-25 19:54 | 53.59059 | 14.89934 | 134 ft | 1 kts | 221° |
| 2026-04-25 19:55 | 53.59056 | 14.89930 | 134 ft | 0 kts | 223° |